sensor_id;sensor_type;location;lat;lon;timestamp;P1;durP1;ratioP1;P2;durP2;ratioP2
19810;SDS011;10065;49.632;8.346;2023-04-09T06:48:18;20.67;;;12.33;;
19810;SDS011;10065;49.632;8.346;2023-04-09T06:50:49;18.87;;;11.47;;
19810;SDS011;10065;49.632;8.346;2023-04-09T06:53:49;18.17;;;11.20;;
19810;SDS011;10065;49.632;8.346;2023-04-09T06:56:37;19.67;;;11.43;;
19810;SDS011;10065;49.632;8.346;2023-04-09T06:59:17;18.67;;;11.07;;
19810;SDS011;10065;49.632;8.346;2023-04-09T07:01:47;20.97;;;12.53;;
19810;SDS011;10065;49.632;8.346;2023-04-09T07:04:33;19.03;;;11.00;;
19810;SDS011;10065;49.632;8.346;2023-04-09T07:07:13;18.80;;;11.73;;
19810;SDS011;10065;49.632;8.346;2023-04-09T07:09:51;19.33;;;12.33;;
19810;SDS011;10065;49.632;8.346;2023-04-09T07:12:29;18.73;;;12.40;;
19810;SDS011;10065;49.632;8.346;2023-04-09T07:14:59;20.87;;;11.53;;
19810;SDS011;10065;49.632;8.346;2023-04-09T07:18:30;17.70;;;10.53;;
19810;SDS011;10065;49.632;8.346;2023-04-09T07:21:33;18.97;;;11.83;;
19810;SDS011;10065;49.632;8.346;2023-04-09T07:24:35;21.60;;;12.03;;
19810;SDS011;10065;49.632;8.346;2023-04-09T07:27:30;21.13;;;13.13;;
19810;SDS011;10065;49.632;8.346;2023-04-09T07:30:12;21.13;;;11.50;;
19810;SDS011;10065;49.632;8.346;2023-04-09T07:32:42;20.27;;;12.77;;
19810;SDS011;10065;49.632;8.346;2023-04-09T07:35:31;21.10;;;13.60;;
19810;SDS011;10065;49.632;8.346;2023-04-09T07:38:15;21.97;;;13.70;;
19810;SDS011;10065;49.632;8.346;2023-04-09T07:41:19;22.87;;;14.17;;
19810;SDS011;10065;49.632;8.346;2023-04-09T07:43:47;22.70;;;13.83;;
19810;SDS011;10065;49.632;8.346;2023-04-09T07:46:26;21.07;;;13.27;;
19810;SDS011;10065;49.632;8.346;2023-04-09T07:48:54;26.03;;;14.13;;
19810;SDS011;10065;49.632;8.346;2023-04-09T07:51:26;23.53;;;14.57;;
19810;SDS011;10065;49.632;8.346;2023-04-09T07:54:04;23.93;;;15.10;;
19810;SDS011;10065;49.632;8.346;2023-04-09T07:56:35;21.27;;;13.33;;
19810;SDS011;10065;49.632;8.346;2023-04-09T07:59:26;21.33;;;13.97;;
19810;SDS011;10065;49.632;8.346;2023-04-09T08:01:58;23.23;;;13.43;;
19810;SDS011;10065;49.632;8.346;2023-04-09T08:04:26;21.73;;;13.93;;
19810;SDS011;10065;49.632;8.346;2023-04-09T08:06:56;24.27;;;15.60;;
19810;SDS011;10065;49.632;8.346;2023-04-09T08:09:24;20.37;;;12.83;;
19810;SDS011;10065;49.632;8.346;2023-04-09T08:11:54;24.13;;;15.00;;
19810;SDS011;10065;49.632;8.346;2023-04-09T08:14:22;23.27;;;13.97;;
19810;SDS011;10065;49.632;8.346;2023-04-09T08:16:50;24.13;;;15.00;;
19810;SDS011;10065;49.632;8.346;2023-04-09T08:19:20;23.70;;;14.73;;
19810;SDS011;10065;49.632;8.346;2023-04-09T08:21:50;25.43;;;14.77;;
19810;SDS011;10065;49.632;8.346;2023-04-09T08:24:19;22.77;;;14.20;;
19810;SDS011;10065;49.632;8.346;2023-04-09T08:26:48;21.53;;;14.23;;
19810;SDS011;10065;49.632;8.346;2023-04-09T08:29:16;23.33;;;13.80;;
19810;SDS011;10065;49.632;8.346;2023-04-09T08:31:45;24.80;;;14.53;;
19810;SDS011;10065;49.632;8.346;2023-04-09T08:34:13;22.30;;;13.93;;
19810;SDS011;10065;49.632;8.346;2023-04-09T08:36:44;19.27;;;13.90;;
19810;SDS011;10065;49.632;8.346;2023-04-09T08:39:14;21.67;;;14.47;;
19810;SDS011;10065;49.632;8.346;2023-04-09T08:41:47;20.73;;;13.60;;
19810;SDS011;10065;49.632;8.346;2023-04-09T08:44:20;20.33;;;14.13;;
19810;SDS011;10065;49.632;8.346;2023-04-09T08:46:52;21.87;;;13.90;;
19810;SDS011;10065;49.632;8.346;2023-04-09T08:49:25;20.93;;;13.70;;
19810;SDS011;10065;49.632;8.346;2023-04-09T08:51:58;22.00;;;14.10;;
19810;SDS011;10065;49.632;8.346;2023-04-09T08:54:29;21.10;;;15.07;;
19810;SDS011;10065;49.632;8.346;2023-04-09T09:00:07;20.50;;;13.60;;
19810;SDS011;10065;49.632;8.346;2023-04-09T09:02:36;23.67;;;15.33;;
19810;SDS011;10065;49.632;8.346;2023-04-09T09:05:05;19.03;;;14.20;;
19810;SDS011;10065;49.632;8.346;2023-04-09T09:07:36;19.33;;;14.17;;
19810;SDS011;10065;49.632;8.346;2023-04-09T09:10:20;19.77;;;13.27;;
19810;SDS011;10065;49.632;8.346;2023-04-09T09:12:49;20.23;;;12.87;;
19810;SDS011;10065;49.632;8.346;2023-04-09T09:15:24;19.23;;;13.00;;
19810;SDS011;10065;49.632;8.346;2023-04-09T09:17:54;19.80;;;14.17;;
19810;SDS011;10065;49.632;8.346;2023-04-09T09:20:24;16.93;;;11.77;;
19810;SDS011;10065;49.632;8.346;2023-04-09T09:23:43;17.40;;;12.10;;
19810;SDS011;10065;49.632;8.346;2023-04-09T09:26:14;17.13;;;12.20;;
19810;SDS011;10065;49.632;8.346;2023-04-09T09:28:45;17.40;;;12.90;;
19810;SDS011;10065;49.632;8.346;2023-04-09T09:31:15;17.87;;;12.57;;
19810;SDS011;10065;49.632;8.346;2023-04-09T09:33:45;15.60;;;11.20;;
19810;SDS011;10065;49.632;8.346;2023-04-09T09:36:29;16.67;;;11.77;;
19810;SDS011;10065;49.632;8.346;2023-04-09T09:38:59;15.90;;;11.30;;
19810;SDS011;10065;49.632;8.346;2023-04-09T09:41:31;16.20;;;11.47;;
19810;SDS011;10065;49.632;8.346;2023-04-09T09:44:01;11.57;;;8.83;;
19810;SDS011;10065;49.632;8.346;2023-04-09T09:46:33;11.90;;;8.70;;
19810;SDS011;10065;49.632;8.346;2023-04-09T09:49:04;11.37;;;9.13;;
19810;SDS011;10065;49.632;8.346;2023-04-09T09:51:32;12.13;;;9.20;;
19810;SDS011;10065;49.632;8.346;2023-04-09T09:54:06;14.10;;;10.30;;
19810;SDS011;10065;49.632;8.346;2023-04-09T09:56:36;14.30;;;10.60;;
19810;SDS011;10065;49.632;8.346;2023-04-09T09:59:12;13.47;;;10.23;;
19810;SDS011;10065;49.632;8.346;2023-04-09T10:01:43;12.60;;;10.10;;
19810;SDS011;10065;49.632;8.346;2023-04-09T10:04:14;16.07;;;10.33;;
19810;SDS011;10065;49.632;8.346;2023-04-09T10:06:44;13.07;;;9.50;;
19810;SDS011;10065;49.632;8.346;2023-04-09T10:09:16;14.77;;;10.90;;
19810;SDS011;10065;49.632;8.346;2023-04-09T10:11:48;13.50;;;9.97;;
19810;SDS011;10065;49.632;8.346;2023-04-09T10:14:18;12.97;;;9.80;;
19810;SDS011;10065;49.632;8.346;2023-04-09T10:16:51;14.53;;;10.73;;
19810;SDS011;10065;49.632;8.346;2023-04-09T10:19:30;13.07;;;9.63;;
19810;SDS011;10065;49.632;8.346;2023-04-09T10:22:03;12.47;;;9.40;;
19810;SDS011;10065;49.632;8.346;2023-04-09T10:24:40;12.70;;;9.40;;
19810;SDS011;10065;49.632;8.346;2023-04-09T10:27:08;10.10;;;8.25;;
19810;SDS011;10065;49.632;8.346;2023-04-09T10:29:43;11.48;;;10.02;;
19810;SDS011;10065;49.632;8.346;2023-04-09T10:32:12;10.95;;;9.10;;
19810;SDS011;10065;49.632;8.346;2023-04-09T10:34:46;11.65;;;9.55;;
19810;SDS011;10065;49.632;8.346;2023-04-09T10:37:19;11.40;;;9.07;;
19810;SDS011;10065;49.632;8.346;2023-04-09T10:39:49;12.77;;;10.85;;
19810;SDS011;10065;49.632;8.346;2023-04-09T10:42:28;10.85;;;9.52;;
19810;SDS011;10065;49.632;8.346;2023-04-09T10:45:05;12.80;;;10.05;;
19810;SDS011;10065;49.632;8.346;2023-04-09T10:47:35;11.83;;;9.37;;
19810;SDS011;10065;49.632;8.346;2023-04-09T13:29:59;6.60;;;4.93;;
19810;SDS011;10065;49.632;8.346;2023-04-09T13:32:28;8.60;;;6.00;;
19810;SDS011;10065;49.632;8.346;2023-04-09T13:34:56;6.03;;;4.80;;
19810;SDS011;10065;49.632;8.346;2023-04-09T13:37:28;12.00;;;4.57;;
19810;SDS011;10065;49.632;8.346;2023-04-09T16:45:56;5.27;;;3.53;;
19810;SDS011;10065;49.632;8.346;2023-04-09T16:48:26;7.30;;;3.57;;
19810;SDS011;10065;49.632;8.346;2023-04-09T16:50:57;7.77;;;5.60;;
19810;SDS011;10065;49.632;8.346;2023-04-09T16:53:26;5.20;;;3.57;;
19810;SDS011;10065;49.632;8.346;2023-04-09T16:56:07;4.13;;;2.83;;
19810;SDS011;10065;49.632;8.346;2023-04-09T16:59:30;4.50;;;3.07;;
19810;SDS011;10065;49.632;8.346;2023-04-09T17:02:12;4.63;;;2.90;;
19810;SDS011;10065;49.632;8.346;2023-04-09T17:04:47;4.27;;;2.70;;
19810;SDS011;10065;49.632;8.346;2023-04-09T17:07:19;6.00;;;3.00;;
19810;SDS011;10065;49.632;8.346;2023-04-09T17:09:57;4.10;;;3.00;;
19810;SDS011;10065;49.632;8.346;2023-04-09T17:15:31;3.70;;;2.50;;
19810;SDS011;10065;49.632;8.346;2023-04-09T17:18:06;6.33;;;2.93;;
19810;SDS011;10065;49.632;8.346;2023-04-09T17:21:04;4.00;;;2.60;;
19810;SDS011;10065;49.632;8.346;2023-04-09T17:23:45;3.83;;;2.33;;
19810;SDS011;10065;49.632;8.346;2023-04-09T17:26:30;5.73;;;3.10;;
19810;SDS011;10065;49.632;8.346;2023-04-09T17:29:01;3.90;;;2.60;;
19810;SDS011;10065;49.632;8.346;2023-04-09T17:31:52;5.77;;;3.13;;
19810;SDS011;10065;49.632;8.346;2023-04-09T17:34:26;4.60;;;3.10;;
19810;SDS011;10065;49.632;8.346;2023-04-09T17:40:07;3.83;;;2.70;;
19810;SDS011;10065;49.632;8.346;2023-04-09T17:42:38;4.23;;;2.87;;
19810;SDS011;10065;49.632;8.346;2023-04-09T17:45:09;5.03;;;3.00;;
19810;SDS011;10065;49.632;8.346;2023-04-09T17:47:43;3.83;;;2.60;;
19810;SDS011;10065;49.632;8.346;2023-04-09T17:50:36;3.37;;;2.67;;
19810;SDS011;10065;49.632;8.346;2023-04-09T18:22:38;7.70;;;4.27;;
19810;SDS011;10065;49.632;8.346;2023-04-09T18:25:30;6.80;;;4.07;;
19810;SDS011;10065;49.632;8.346;2023-04-09T18:28:35;6.63;;;4.30;;
19810;SDS011;10065;49.632;8.346;2023-04-09T18:31:11;7.37;;;5.20;;
19810;SDS011;10065;49.632;8.346;2023-04-09T18:33:46;8.93;;;4.63;;
19810;SDS011;10065;49.632;8.346;2023-04-09T18:36:20;8.20;;;5.30;;
19810;SDS011;10065;49.632;8.346;2023-04-09T18:38:50;8.03;;;5.20;;
19810;SDS011;10065;49.632;8.346;2023-04-09T18:41:22;7.80;;;5.13;;
19810;SDS011;10065;49.632;8.346;2023-04-09T18:43:58;8.03;;;5.20;;
19810;SDS011;10065;49.632;8.346;2023-04-09T18:46:27;10.03;;;6.57;;
19810;SDS011;10065;49.632;8.346;2023-04-09T18:49:43;10.60;;;6.43;;
19810;SDS011;10065;49.632;8.346;2023-04-09T18:52:20;10.80;;;5.87;;
19810;SDS011;10065;49.632;8.346;2023-04-09T18:54:51;9.27;;;5.80;;
19810;SDS011;10065;49.632;8.346;2023-04-09T18:57:32;10.07;;;6.43;;
19810;SDS011;10065;49.632;8.346;2023-04-09T19:00:13;10.33;;;6.33;;
19810;SDS011;10065;49.632;8.346;2023-04-09T19:02:54;9.17;;;6.23;;
19810;SDS011;10065;49.632;8.346;2023-04-09T19:05:29;10.20;;;6.57;;
19810;SDS011;10065;49.632;8.346;2023-04-09T19:07:57;10.87;;;7.03;;
19810;SDS011;10065;49.632;8.346;2023-04-09T19:10:31;9.23;;;6.20;;
19810;SDS011;10065;49.632;8.346;2023-04-09T19:13:21;9.67;;;6.17;;
19810;SDS011;10065;49.632;8.346;2023-04-09T19:16:04;12.40;;;5.70;;
19810;SDS011;10065;49.632;8.346;2023-04-09T19:18:58;9.13;;;5.80;;
19810;SDS011;10065;49.632;8.346;2023-04-09T19:25:01;9.87;;;6.70;;
19810;SDS011;10065;49.632;8.346;2023-04-09T19:26:08;10.70;;;5.47;;
19810;SDS011;10065;49.632;8.346;2023-04-09T19:28:37;9.87;;;6.17;;
19810;SDS011;10065;49.632;8.346;2023-04-09T19:31:09;13.53;;;7.93;;
19810;SDS011;10065;49.632;8.346;2023-04-09T19:33:47;13.13;;;9.23;;
19810;SDS011;10065;49.632;8.346;2023-04-09T19:36:25;15.87;;;11.00;;
19810;SDS011;10065;49.632;8.346;2023-04-09T19:38:59;17.63;;;11.37;;
19810;SDS011;10065;49.632;8.346;2023-04-09T19:41:51;16.23;;;10.03;;
19810;SDS011;10065;49.632;8.346;2023-04-09T19:45:02;16.17;;;10.97;;
19810;SDS011;10065;49.632;8.346;2023-04-09T19:47:50;17.37;;;11.27;;
19810;SDS011;10065;49.632;8.346;2023-04-09T19:53:38;14.57;;;9.70;;
19810;SDS011;10065;49.632;8.346;2023-04-09T19:56:15;16.53;;;10.73;;
19810;SDS011;10065;49.632;8.346;2023-04-09T19:58:53;14.87;;;9.77;;
19810;SDS011;10065;49.632;8.346;2023-04-09T20:04:07;16.50;;;10.83;;
19810;SDS011;10065;49.632;8.346;2023-04-09T20:06:36;16.57;;;11.13;;
19810;SDS011;10065;49.632;8.346;2023-04-09T20:17:41;12.77;;;9.30;;
19810;SDS011;10065;49.632;8.346;2023-04-09T20:20:38;13.97;;;8.93;;
19810;SDS011;10065;49.632;8.346;2023-04-09T20:23:09;17.40;;;9.33;;
19810;SDS011;10065;49.632;8.346;2023-04-09T20:25:40;14.93;;;9.20;;
19810;SDS011;10065;49.632;8.346;2023-04-09T20:28:12;13.70;;;9.13;;
19810;SDS011;10065;49.632;8.346;2023-04-09T20:33:39;15.10;;;8.80;;
19810;SDS011;10065;49.632;8.346;2023-04-09T20:37:01;11.47;;;7.67;;
19810;SDS011;10065;49.632;8.346;2023-04-09T20:39:32;10.60;;;7.17;;
19810;SDS011;10065;49.632;8.346;2023-04-09T20:42:07;9.20;;;6.47;;
19810;SDS011;10065;49.632;8.346;2023-04-09T20:47:21;10.63;;;6.70;;
19810;SDS011;10065;49.632;8.346;2023-04-09T22:44:43;10.90;;;7.43;;
